Time;durP1;ratioP1;P1;durP2;ratioP2;P2;SDS_P1;SDS_P2;PMS_P1;PMS_P2;Temp;Humidity;BMP_temperature;BMP_pressure;BME280_temperature;BME280_humidity;BME280_pressure;Samples;Min_cycle;Max_cycle;Signal;HPM_P1;HPM_P2
2023/05/12 00:01:19;;;;;;;5.50;3.70;;;;;;;10.19;62.17;98873.05;225503;1276;22540;-68
2023/05/12 00:06:30;;;;;;;5.80;3.80;;;;;;;10.16;62.54;98879.89;225593;1278;22566;-68
2023/05/12 00:11:50;;;;;;;4.80;3.60;;;;;;;10.17;62.57;98883.27;225456;1282;22637;-68
2023/05/12 00:17:07;;;;;;;5.40;3.90;;;;;;;10.14;62.87;98879.91;225535;1278;22569;-69
2023/05/12 00:22:19;;;;;;;8.80;4.20;;;;;;;10.13;62.77;98880.64;225517;1282;22552;-68
2023/05/12 00:27:24;;;;;;;5.50;3.90;;;;;;;10.09;62.87;98883.77;225511;1282;22556;-68
2023/05/12 00:32:32;;;;;;;7.80;4.20;;;;;;;10.04;62.87;98877.98;225628;1259;22551;-68
2023/05/12 00:37:35;;;;;;;5.60;3.80;;;;;;;10.00;62.91;98883.83;225444;1281;22618;-68
2023/05/12 00:42:40;;;;;;;6.80;3.70;;;;;;;9.92;62.90;98882.14;225542;1275;22536;-68
2023/05/12 00:47:47;;;;;;;7.90;4.00;;;;;;;9.83;63.05;98878.52;225603;1278;22546;-69
2023/05/12 00:52:52;;;;;;;4.90;3.80;;;;;;;9.79;63.08;98881.84;225599;1275;22531;-68
2023/05/12 00:57:58;;;;;;;5.30;4.00;;;;;;;9.75;63.48;98874.44;225485;1278;22531;-67
2023/05/12 01:03:12;;;;;;;6.20;3.90;;;;;;;9.71;63.72;98876.71;225474;1282;22547;-68
2023/05/12 01:08:22;;;;;;;8.20;3.90;;;;;;;9.62;63.41;98881.58;225504;1275;22548;-69
2023/05/12 01:13:26;;;;;;;8.00;4.40;;;;;;;9.52;63.54;98876.92;225435;1278;22535;-68
2023/05/12 01:18:35;;;;;;;6.70;4.00;;;;;;;9.43;63.51;98878.16;225578;1278;22533;-68
2023/05/12 01:23:46;;;;;;;6.50;4.00;;;;;;;9.33;63.99;98884.19;225488;1280;22591;-68
2023/05/12 01:29:02;;;;;;;5.80;3.80;;;;;;;9.21;64.29;98884.06;225569;1282;22566;-67
2023/05/12 01:34:17;;;;;;;6.40;4.00;;;;;;;9.08;64.42;98882.91;225474;1278;22561;-68
2023/05/12 01:39:22;;;;;;;7.70;3.70;;;;;;;9.00;64.74;98883.50;225562;1270;22546;-68
2023/05/12 01:44:30;;;;;;;5.50;4.20;;;;;;;8.94;64.90;98888.84;225433;1281;22528;-67
2023/05/12 01:49:46;;;;;;;5.80;4.40;;;;;;;8.89;64.93;98893.98;225517;1282;22563;-68
2023/05/12 01:54:58;;;;;;;6.70;4.20;;;;;;;8.82;65.17;98898.08;225496;1266;24308;-69
2023/05/12 02:00:11;;;;;;;6.60;4.40;;;;;;;8.76;65.69;98896.50;225468;1280;22572;-68
2023/05/12 02:05:16;;;;;;;6.30;4.30;;;;;;;8.68;65.46;98898.25;225526;1278;22547;-67
2023/05/12 02:10:20;;;;;;;9.90;4.40;;;;;;;8.59;65.76;98896.82;225537;1279;22543;-68
2023/05/12 02:15:30;;;;;;;6.80;4.30;;;;;;;8.47;65.55;98896.41;225556;1282;22637;-68
2023/05/12 02:20:38;;;;;;;7.20;4.50;;;;;;;8.36;66.18;98898.23;225595;1278;22637;-69
2023/05/12 02:26:02;;;;;;;9.10;5.00;;;;;;;8.25;66.43;98900.42;225539;1280;22503;-68
2023/05/12 02:31:12;;;;;;;9.20;5.20;;;;;;;8.17;66.44;98903.64;225503;1280;23280;-68
2023/05/12 02:36:18;;;;;;;10.20;4.90;;;;;;;8.07;67.09;98903.77;225534;1282;22539;-68
2023/05/12 02:41:38;;;;;;;8.10;4.80;;;;;;;8.02;67.22;98907.02;225538;1282;22539;-69
2023/05/12 02:46:56;;;;;;;7.50;5.10;;;;;;;7.96;67.06;98905.41;225523;1282;22620;-68
2023/05/12 02:52:08;;;;;;;8.40;5.40;;;;;;;7.92;67.09;98905.38;225514;1282;22566;-68
2023/05/12 02:57:30;;;;;;;9.80;5.60;;;;;;;7.87;67.39;98906.64;225512;1282;22615;-69
2023/05/12 03:02:34;;;;;;;7.90;5.50;;;;;;;7.81;67.54;98901.99;225455;1280;22554;-68
2023/05/12 03:07:45;;;;;;;7.00;5.80;;;;;;;7.74;67.72;98901.67;225471;1282;22544;-68
2023/05/12 03:13:03;;;;;;;8.00;5.50;;;;;;;7.64;67.82;98902.58;225466;1281;22543;-68
2023/05/12 03:18:43;;;;;;;8.80;5.40;;;;;;;7.55;68.16;98905.05;225584;1260;24236;-69
2023/05/12 03:23:47;;;;;;;7.60;5.00;;;;;;;7.49;68.15;98906.04;225470;1282;22554;-68
2023/05/12 03:28:50;;;;;;;8.40;5.50;;;;;;;7.47;68.49;98903.94;225359;1278;22560;-68
2023/05/12 03:33:56;;;;;;;11.20;5.50;;;;;;;7.52;68.74;98907.77;225387;1282;22586;-68
2023/05/12 03:39:07;;;;;;;8.80;5.60;;;;;;;7.72;68.85;98909.95;225477;1282;22547;-68
2023/05/12 03:44:16;;;;;;;12.70;6.00;;;;;;;7.91;68.54;98913.84;225454;1282;25443;-68
2023/05/12 03:49:23;;;;;;;10.10;5.70;;;;;;;8.01;68.78;98913.83;225524;1282;22537;-68
2023/05/12 03:54:29;;;;;;;6.80;5.10;;;;;;;8.08;68.55;98917.95;225527;1282;22547;-70
2023/05/12 03:59:35;;;;;;;7.80;5.60;;;;;;;8.16;68.89;98917.23;225607;1275;25332;-68
2023/05/12 04:04:45;;;;;;;7.70;5.80;;;;;;;8.25;68.55;98921.38;225540;1282;23040;-69
2023/05/12 04:09:52;;;;;;;9.10;6.20;;;;;;;8.32;68.38;98923.17;225509;1280;22568;-68
2023/05/12 04:14:58;;;;;;;8.80;6.20;;;;;;;8.39;68.62;98925.73;225517;1278;23428;-68
2023/05/12 04:20:11;;;;;;;8.60;5.50;;;;;;;8.47;68.61;98929.63;225487;1280;23045;-68
2023/05/12 04:25:26;;;;;;;8.30;6.30;;;;;;;8.55;68.95;98930.35;225488;1281;23264;-68
2023/05/12 04:30:40;;;;;;;9.80;6.30;;;;;;;8.63;68.92;98936.77;225454;1282;22572;-67
2023/05/12 04:35:43;;;;;;;10.90;6.30;;;;;;;8.73;69.26;98941.59;225583;1282;22572;-69
2023/05/12 04:40:50;;;;;;;10.70;6.70;;;;;;;8.87;69.05;98937.56;225461;1281;22544;-68
2023/05/12 04:45:54;;;;;;;12.40;6.50;;;;;;;8.99;68.66;98938.36;225532;1282;22539;-69
2023/05/12 04:51:02;;;;;;;11.30;6.20;;;;;;;9.11;68.41;98938.31;225469;1282;22539;-69
2023/05/12 04:56:22;;;;;;;11.60;7.20;;;;;;;9.27;68.65;98932.99;225431;1281;22560;-68
2023/05/12 05:01:41;;;;;;;13.50;7.80;;;;;;;9.47;68.80;98929.98;225401;1282;22547;-68
2023/05/12 05:06:54;;;;;;;10.60;7.20;;;;;;;9.68;68.29;98928.91;225464;1282;22558;-69
2023/05/12 05:12:09;;;;;;;9.30;7.30;;;;;;;9.91;68.25;98934.83;225534;1282;25065;-68
2023/05/12 05:17:18;;;;;;;6.90;6.00;;;;;;;10.14;67.93;98940.91;225513;1281;22551;-68
2023/05/12 05:22:40;;;;;;;10.70;6.10;;;;;;;10.36;67.25;98934.39;225509;1278;22543;-68
2023/05/12 05:27:47;;;;;;;7.60;5.40;;;;;;;10.60;67.43;98929.90;225539;1282;22582;-67
2023/05/12 05:32:55;;;;;;;8.90;5.10;;;;;;;10.82;66.69;98930.48;225523;1281;22541;-67
2023/05/12 05:38:03;;;;;;;7.40;4.60;;;;;;;11.04;66.61;98927.11;225393;1282;22555;-68
2023/05/12 05:43:15;;;;;;;6.70;4.50;;;;;;;11.22;66.21;98931.13;225577;1281;22556;-67
2023/05/12 05:48:35;;;;;;;7.80;4.60;;;;;;;11.43;65.75;98934.37;225577;1282;22544;-68
2023/05/12 05:53:48;;;;;;;7.90;4.30;;;;;;;11.66;65.52;98937.81;225348;1275;22543;-70
2023/05/12 05:58:54;;;;;;;7.80;4.60;;;;;;;11.96;65.64;98945.80;225239;1268;22543;-69
2023/05/12 06:04:09;;;;;;;17.90;4.80;;;;;;;12.18;65.00;98940.83;225173;1265;22537;-70
2023/05/12 06:09:15;;;;;;;7.90;4.50;;;;;;;12.43;64.47;98948.23;225165;1265;22529;-71
2023/05/12 06:14:18;;;;;;;8.10;4.40;;;;;;;12.63;63.72;98953.55;225326;1275;22543;-68
2023/05/12 06:19:21;;;;;;;6.30;3.90;;;;;;;12.82;63.28;98954.33;224904;1265;137736;-69
2023/05/12 06:24:25;;;;;;;7.80;4.00;;;;;;;12.99;62.66;98954.10;225080;1278;137688;-81
2023/05/12 06:29:28;;;;;;;6.10;3.90;;;;;;;13.18;62.50;98953.28;224954;1265;137501;-70
2023/05/12 06:34:31;;;;;;;7.30;3.90;;;;;;;13.35;62.10;98953.29;224996;1275;22543;-68
2023/05/12 06:39:34;;;;;;;6.20;3.70;;;;;;;13.61;62.00;98951.28;225059;1275;137259;-67
2023/05/12 06:44:37;;;;;;;5.00;3.70;;;;;;;13.83;61.24;98953.00;225025;1270;137636;-66
2023/05/12 06:49:45;;;;;;;4.90;3.50;;;;;;;14.00;60.86;98952.39;224850;1271;138180;-67
2023/05/12 06:54:53;;;;;;;9.80;4.70;;;;;;;14.21;60.60;98947.73;224781;1265;137597;-67
2023/05/12 06:59:55;;;;;;;7.10;3.70;;;;;;;14.50;60.31;98948.80;224854;1280;137746;-67
2023/05/12 07:04:57;;;;;;;5.90;3.30;;;;;;;14.72;59.87;98949.98;225305;1276;22553;-66
2023/05/12 07:10:06;;;;;;;6.00;3.60;;;;;;;14.91;59.22;98950.02;225030;1275;137188;-70
2023/05/12 07:15:11;;;;;;;5.40;3.30;;;;;;;15.15;59.43;98943.34;225005;1278;137468;-67
2023/05/12 07:20:16;;;;;;;6.50;3.20;;;;;;;15.41;58.93;98941.42;224962;1271;137635;-68
2023/05/12 07:25:21;;;;;;;6.40;3.60;;;;;;;15.70;58.48;98937.11;225113;1272;137618;-69
2023/05/12 07:30:24;;;;;;;4.60;2.70;;;;;;;15.99;57.69;98934.48;225153;1281;138031;-66
2023/05/12 07:35:30;;;;;;;4.80;3.30;;;;;;;16.25;57.13;98933.21;224922;1271;137642;-68
2023/05/12 07:40:38;;;;;;;5.40;2.80;;;;;;;16.51;56.97;98939.30;225250;1267;22701;-68
2023/05/12 07:45:44;;;;;;;4.30;2.70;;;;;;;16.82;56.72;98937.15;224930;1265;137321;-68
2023/05/12 07:50:50;;;;;;;4.10;2.90;;;;;;;17.09;56.22;98936.20;225340;1261;137450;-68
2023/05/12 07:55:55;;;;;;;6.10;3.80;;;;;;;17.28;55.53;98934.94;224818;1272;137709;-67
2023/05/12 08:00:59;;;;;;;4.60;2.20;;;;;;;17.52;55.14;98932.61;225385;1281;137686;-68
2023/05/12 08:06:03;;;;;;;6.40;2.70;;;;;;;17.75;54.73;98928.98;224944;1280;137665;-69
2023/05/12 08:11:10;;;;;;;5.90;2.70;;;;;;;17.92;53.91;98927.32;225100;1271;25244;-67
2023/05/12 08:16:15;;;;;;;4.10;2.60;;;;;;;18.08;53.23;98934.89;225120;1281;137697;-66
2023/05/12 08:21:21;;;;;;;4.30;2.50;;;;;;;18.25;52.82;98929.89;224981;1271;137415;-67
2023/05/12 08:26:23;;;;;;;9.20;3.20;;;;;;;18.51;52.09;98930.68;225057;1271;137778;-67
2023/05/12 08:31:26;;;;;;;5.40;2.50;;;;;;;18.76;51.31;98935.79;225094;1264;137639;-68
2023/05/12 08:36:29;;;;;;;4.90;2.30;;;;;;;18.83;50.81;98932.23;224732;1260;137611;-72
2023/05/12 08:41:54;;;;;;;3.80;2.10;;;;;;;19.00;51.15;98933.10;225121;1281;137753;-70
2023/05/12 08:47:01;;;;;;;3.10;2.30;;;;;;;19.32;50.77;98930.63;225172;1281;22563;-69
2023/05/12 08:52:17;;;;;;;3.20;1.90;;;;;;;19.50;49.57;98929.23;225110;1278;137345;-71
2023/05/12 08:57:20;;;;;;;6.50;2.90;;;;;;;19.65;49.06;98925.19;225154;1279;137677;-71
2023/05/12 09:02:25;;;;;;;9.30;2.60;;;;;;;19.77;49.09;98924.52;225159;1272;137567;-70
2023/05/12 09:07:46;;;;;;;4.60;2.30;;;;;;;19.86;48.72;98928.84;225204;1278;137540;-70
2023/05/12 09:12:53;;;;;;;3.80;2.00;;;;;;;20.07;48.34;98930.83;225076;1275;137616;-70
2023/05/12 09:18:22;;;;;;;3.10;2.00;;;;;;;20.29;47.58;98928.67;225098;1272;137620;-70
2023/05/12 09:23:37;;;;;;;3.80;2.30;;;;;;;20.45;46.75;98928.65;225061;1269;137588;-72
2023/05/12 09:28:46;;;;;;;6.50;2.20;;;;;;;20.70;46.22;98933.94;225197;1276;22536;-69
2023/05/12 09:33:51;;;;;;;3.10;2.10;;;;;;;20.86;45.27;98932.83;225001;1283;137608;-69
2023/05/12 09:39:07;;;;;;;4.80;2.00;;;;;;;21.04;43.96;98934.91;224916;1270;137556;-69
2023/05/12 09:44:54;;;;;;;6.50;2.30;;;;;;;21.29;43.77;98932.19;224942;1276;137535;-69
2023/05/12 09:50:04;;;;;;;5.50;2.10;;;;;;;21.58;43.46;98928.11;224978;1261;137595;-69
2023/05/12 09:55:12;;;;;;;9.60;2.20;;;;;;;21.74;42.61;98929.81;225063;1275;137630;-71
2023/05/12 10:00:18;;;;;;;1.90;1.70;;;;;;;21.88;41.97;98929.66;225069;1269;137617;-71
2023/05/12 10:05:51;;;;;;;3.50;1.90;;;;;;;21.99;41.27;98920.92;224923;1278;137601;-70
2023/05/12 10:11:13;;;;;;;3.80;1.90;;;;;;;21.95;41.55;98914.45;225100;1269;22568;-73
2023/05/12 10:16:26;;;;;;;2.30;1.70;;;;;;;22.24;42.25;98912.88;224987;1281;137305;-74
2023/05/12 10:21:29;;;;;;;4.30;1.90;;;;;;;22.47;40.54;98920.42;224860;1264;137608;-73
2023/05/12 10:26:38;;;;;;;3.30;1.90;;;;;;;22.29;39.26;98919.15;224783;1269;137571;-72
2023/05/12 10:31:44;;;;;;;4.10;1.60;;;;;;;22.27;39.17;98916.65;224947;1273;137640;-73
2023/05/12 10:36:49;;;;;;;5.50;2.10;;;;;;;22.32;39.74;98914.14;224935;1266;192430;-73
2023/05/12 10:42:04;;;;;;;2.80;2.00;;;;;;;22.50;39.73;98915.11;225045;1283;137550;-72
2023/05/12 10:47:14;;;;;;;2.90;1.70;;;;;;;22.28;39.03;98914.13;225102;1283;22664;-74
2023/05/12 10:52:22;;;;;;;3.40;2.00;;;;;;;22.13;39.39;98915.86;225042;1278;137047;-73
2023/05/12 10:57:45;;;;;;;2.50;1.70;;;;;;;22.10;40.28;98917.95;225008;1276;137411;-75
2023/05/12 11:02:51;;;;;;;5.70;2.20;;;;;;;21.92;39.98;98915.54;225102;1269;137417;-73
2023/05/12 11:08:00;;;;;;;3.00;2.00;;;;;;;21.91;40.16;98919.89;225185;1263;137589;-71
2023/05/12 11:13:03;;;;;;;8.30;2.90;;;;;;;21.98;39.81;98915.87;225159;1268;137658;-73
2023/05/12 11:18:06;;;;;;;3.30;2.30;;;;;;;22.02;39.88;98920.27;225107;1279;137790;-73
2023/05/12 11:23:11;;;;;;;5.40;2.40;;;;;;;22.00;39.98;98916.64;225227;1282;22550;-74
2023/05/12 11:28:19;;;;;;;2.80;1.80;;;;;;;22.13;40.20;98917.59;225015;1283;137266;-74
2023/05/12 11:33:22;;;;;;;3.80;2.00;;;;;;;22.09;39.88;98924.25;225028;1281;138026;-71
2023/05/12 11:38:32;;;;;;;2.50;1.80;;;;;;;22.11;39.35;98925.43;225039;1273;138032;-72
2023/05/12 11:43:42;;;;;;;5.00;2.50;;;;;;;22.20;39.86;98925.11;224927;1278;137762;-71
2023/05/12 11:48:54;;;;;;;3.80;1.80;;;;;;;22.12;38.89;98931.53;224850;1266;137650;-74
2023/05/12 11:53:59;;;;;;;2.50;1.80;;;;;;;22.14;38.66;98934.88;224801;1271;137581;-73
2023/05/12 11:59:10;;;;;;;3.80;1.90;;;;;;;22.35;39.33;98936.24;224872;1261;22814;-73
2023/05/12 12:04:13;;;;;;;3.20;2.30;;;;;;;22.57;39.06;98933.83;224971;1283;137541;-75
2023/05/12 12:09:16;;;;;;;4.30;2.10;;;;;;;22.83;38.87;98933.80;225032;1264;137484;-75
2023/05/12 12:14:17;;;;;;;5.60;2.30;;;;;;;22.95;38.12;98936.45;224978;1280;137656;-75
2023/05/12 12:19:23;;;;;;;2.60;2.20;;;;;;;23.06;38.30;98935.89;225024;1279;137612;-73
2023/05/12 12:24:25;;;;;;;2.30;2.10;;;;;;;23.22;38.26;98933.88;224958;1260;137603;-74
2023/05/12 12:29:30;;;;;;;7.70;2.70;;;;;;;23.43;38.44;98928.89;224956;1276;137610;-74
2023/05/12 12:34:32;;;;;;;5.40;2.50;;;;;;;23.50;38.14;98934.26;225024;1270;22577;-72
2023/05/12 12:39:38;;;;;;;4.30;2.60;;;;;;;23.31;37.89;98935.41;224888;1277;137465;-74
2023/05/12 12:44:40;;;;;;;5.00;2.80;;;;;;;23.38;38.61;98934.67;224913;1273;137652;-76
2023/05/12 12:49:49;;;;;;;7.20;2.70;;;;;;;23.48;38.22;98935.64;224995;1274;137706;-76
2023/05/12 12:54:51;;;;;;;3.80;2.60;;;;;;;23.31;37.45;98945.66;225153;1263;137561;-75
2023/05/12 13:00:09;;;;;;;4.70;2.40;;;;;;;23.16;37.76;98942.43;225209;1282;137870;-80
2023/05/12 13:05:33;;;;;;;3.90;2.70;;;;;;;23.02;37.87;98938.40;225122;1280;137755;-74
2023/05/12 13:10:36;;;;;;;4.40;2.30;;;;;;;22.81;38.46;98941.18;225095;1269;22563;-75
2023/05/12 13:15:40;;;;;;;3.10;2.50;;;;;;;22.53;38.33;98940.60;224851;1277;137352;-77
2023/05/12 13:20:43;;;;;;;9.90;3.40;;;;;;;22.44;39.02;98939.84;225008;1273;138715;-76
2023/05/12 13:25:49;;;;;;;4.70;2.60;;;;;;;22.31;39.36;98945.33;224808;1264;137740;-76
2023/05/12 13:30:51;;;;;;;7.40;3.50;;;;;;;22.21;40.26;98942.08;224980;1263;137780;-75
2023/05/12 13:35:54;;;;;;;3.80;2.30;;;;;;;22.31;40.59;98941.23;225036;1263;137772;-73
2023/05/12 13:40:56;;;;;;;2.90;2.60;;;;;;;22.18;40.12;98936.09;225082;1279;22549;-73
2023/05/12 13:45:58;;;;;;;3.40;2.60;;;;;;;21.92;40.01;98932.33;224859;1270;137596;-72
2023/05/12 13:51:09;;;;;;;4.20;2.40;;;;;;;21.71;40.74;98936.23;224877;1277;137640;-74
2023/05/12 13:56:13;;;;;;;4.90;2.30;;;;;;;21.69;41.04;98936.23;224811;1271;138456;-74
2023/05/12 14:01:15;;;;;;;3.00;2.50;;;;;;;21.77;40.88;98933.93;224872;1264;138182;-74
2023/05/12 14:06:26;;;;;;;11.60;6.40;;;;;;;21.93;40.90;98925.08;224770;1276;22557;-72
2023/05/12 14:11:32;;;;;;;2.60;2.40;;;;;;;22.03;41.00;98928.16;224800;1273;22553;-75
2023/05/12 14:16:40;;;;;;;2.20;2.00;;;;;;;22.12;40.23;98928.95;225762;1283;22580;-75
2023/05/12 14:21:53;;;;;;;2.80;2.20;;;;;;;21.95;40.23;98925.37;225147;1283;22555;-75
2023/05/12 14:27:01;;;;;;;4.40;2.60;;;;;;;21.67;40.43;98922.86;225286;1283;22558;-75
2023/05/12 14:32:05;;;;;;;4.30;2.30;;;;;;;21.60;41.20;98924.80;225318;1283;22905;-76
2023/05/12 14:37:07;;;;;;;2.50;2.20;;;;;;;21.69;41.35;98924.39;225318;1283;22538;-76
2023/05/12 14:42:13;;;;;;;3.10;2.30;;;;;;;21.66;40.70;98925.23;225244;1274;24252;-75
2023/05/12 14:47:15;;;;;;;3.60;2.00;;;;;;;21.35;40.88;98922.16;225282;1281;22630;-75
2023/05/12 14:52:21;;;;;;;2.40;2.20;;;;;;;21.11;41.46;98914.73;225388;1283;23266;-76
2023/05/12 14:57:32;;;;;;;2.50;2.30;;;;;;;20.98;41.69;98921.52;225280;1283;22544;-76
2023/05/12 15:02:35;;;;;;;4.90;2.20;;;;;;;20.91;41.57;98924.68;225403;1279;22570;-75
2023/05/12 15:07:38;;;;;;;4.00;2.20;;;;;;;20.91;41.60;98929.02;225273;1276;25931;-76
2023/05/12 15:12:41;;;;;;;3.40;2.10;;;;;;;20.70;41.91;98924.68;225427;1279;22636;-76
2023/05/12 15:17:43;;;;;;;2.70;2.10;;;;;;;20.46;42.07;98928.73;225379;1279;23630;-75
2023/05/12 15:22:48;;;;;;;3.40;2.40;;;;;;;20.32;42.65;98931.95;225243;1283;22558;-75
2023/05/12 15:27:50;;;;;;;2.80;2.30;;;;;;;20.38;42.51;98940.05;225340;1280;22590;-76
2023/05/12 15:33:11;;;;;;;4.40;2.30;;;;;;;20.54;42.54;98931.89;225407;1283;22543;-75
2023/05/12 15:38:22;;;;;;;3.80;2.40;;;;;;;20.69;42.60;98936.70;225436;1276;22526;-75
2023/05/12 15:43:37;;;;;;;2.30;2.00;;;;;;;20.63;42.46;98936.41;225300;1283;22587;-75
2023/05/12 15:54:06;;;;;;;4.10;2.10;;;;;;;20.45;43.32;98934.20;225360;1280;22596;-75
2023/05/12 15:59:11;;;;;;;6.40;2.20;;;;;;;20.35;43.19;98938.65;225347;1282;22661;-76
2023/05/12 16:04:14;;;;;;;3.30;2.10;;;;;;;20.22;42.90;98937.73;225408;1280;22538;-76
2023/05/12 16:09:16;;;;;;;5.20;2.30;;;;;;;20.21;43.23;98935.36;225403;1280;22585;-75
2023/05/12 16:14:18;;;;;;;4.10;2.30;;;;;;;20.17;43.06;98939.23;225361;1280;22555;-75
2023/05/12 16:19:26;;;;;;;4.90;2.30;;;;;;;20.11;43.13;98940.01;225347;1277;24422;-75
2023/05/12 16:24:28;;;;;;;3.50;1.90;;;;;;;20.00;42.82;98936.03;225378;1279;22547;-75
2023/05/12 16:29:36;;;;;;;3.90;2.00;;;;;;;19.96;42.56;98943.00;225279;1277;22562;-74
2023/05/12 16:34:41;;;;;;;3.50;2.20;;;;;;;19.94;42.52;98947.31;225338;1283;22659;-73
2023/05/12 16:39:43;;;;;;;4.60;1.90;;;;;;;19.90;42.47;98947.84;225387;1279;22550;-76
2023/05/12 16:44:48;;;;;;;4.00;2.70;;;;;;;19.84;42.88;98949.35;225365;1283;22593;-76
2023/05/12 16:49:56;;;;;;;3.80;2.10;;;;;;;19.81;42.34;98952.73;225374;1283;25434;-75
2023/05/12 16:54:59;;;;;;;2.00;1.80;;;;;;;19.72;41.85;98958.43;225390;1280;25407;-75
2023/05/12 17:00:08;;;;;;;2.50;2.00;;;;;;;19.57;41.61;98961.50;225389;1276;22570;-75
2023/05/12 17:05:13;;;;;;;2.20;2.00;;;;;;;19.40;41.62;98962.02;225379;1279;22592;-75
2023/05/12 17:10:15;;;;;;;4.60;2.30;;;;;;;19.19;41.89;98965.45;225325;1283;22598;-75
2023/05/12 17:15:18;;;;;;;9.70;2.20;;;;;;;19.01;42.26;98973.33;225364;1279;22563;-77
2023/05/12 17:20:20;;;;;;;2.60;1.90;;;;;;;18.83;42.40;98977.83;225388;1280;22543;-74
2023/05/12 17:25:23;;;;;;;3.40;2.20;;;;;;;18.65;42.40;98980.30;225305;1259;25105;-75
2023/05/12 17:30:26;;;;;;;3.10;2.20;;;;;;;18.44;42.46;98980.61;225320;1281;22544;-75
2023/05/12 17:35:28;;;;;;;2.60;1.80;;;;;;;18.17;42.49;98982.47;225354;1281;22550;-76
2023/05/12 17:40:30;;;;;;;4.40;2.20;;;;;;;17.91;42.90;98990.06;225278;1281;22561;-75
2023/05/12 17:45:32;;;;;;;3.70;1.90;;;;;;;17.64;43.49;98998.19;225359;1277;22546;-74
2023/05/12 17:50:34;;;;;;;3.00;1.90;;;;;;;17.43;43.83;98998.06;225370;1279;25339;-75
2023/05/12 17:55:36;;;;;;;3.20;2.50;;;;;;;17.23;44.34;99001.41;225444;1279;22551;-75
2023/05/12 18:00:39;;;;;;;3.50;2.00;;;;;;;16.98;44.61;99007.91;225389;1281;22608;-75
2023/05/12 18:05:41;;;;;;;3.50;2.20;;;;;;;16.72;45.07;99007.89;225311;1283;22549;-75
2023/05/12 18:10:44;;;;;;;3.90;2.10;;;;;;;16.46;45.74;99010.62;225389;1280;22553;-75
2023/05/12 18:15:51;;;;;;;3.60;2.20;;;;;;;16.20;46.18;99010.45;225329;1281;25038;-74
2023/05/12 18:20:53;;;;;;;5.50;2.30;;;;;;;15.98;46.63;99013.55;225360;1280;24391;-75
2023/05/12 18:25:59;;;;;;;6.80;2.90;;;;;;;15.79;46.97;99017.25;225319;1281;22572;-75
2023/05/12 18:31:01;;;;;;;4.70;2.40;;;;;;;15.64;47.14;99023.63;225339;1259;22546;-76
2023/05/12 18:36:17;;;;;;;5.20;2.90;;;;;;;15.47;47.54;99026.27;225352;1277;22579;-77
2023/05/12 18:41:19;;;;;;;11.70;2.90;;;;;;;15.30;47.88;99037.21;225353;1283;23753;-75
2023/05/12 18:46:21;;;;;;;5.50;2.50;;;;;;;15.12;48.10;99043.02;225475;1280;22574;-75
2023/05/12 18:51:24;;;;;;;4.60;2.60;;;;;;;14.98;48.37;99047.86;225402;1281;22556;-76
2023/05/12 18:56:27;;;;;;;7.60;2.70;;;;;;;14.81;48.75;99044.88;225417;1279;22555;-76
2023/05/12 19:01:30;;;;;;;4.00;2.40;;;;;;;14.65;49.15;99047.62;225366;1277;25395;-75
2023/05/12 19:06:33;;;;;;;6.80;2.50;;;;;;;14.51;49.40;99049.89;225410;1283;22552;-75
2023/05/12 19:11:35;;;;;;;6.60;3.00;;;;;;;14.41;49.91;99054.41;225335;1281;22665;-75
2023/05/12 19:16:38;;;;;;;5.40;2.50;;;;;;;14.29;50.06;99059.02;225375;1283;22539;-76
2023/05/12 19:21:41;;;;;;;3.70;2.60;;;;;;;14.26;50.19;99058.17;225341;1277;22554;-75
2023/05/12 19:26:43;;;;;;;2.70;2.40;;;;;;;14.27;50.25;99056.73;225337;1276;22546;-77
2023/05/12 19:31:45;;;;;;;3.30;2.60;;;;;;;14.24;50.27;99060.63;225416;1279;22578;-75
2023/05/12 19:36:51;;;;;;;3.30;2.40;;;;;;;14.18;50.19;99070.61;225277;1281;22570;-75
2023/05/12 19:41:53;;;;;;;3.70;2.50;;;;;;;14.10;50.31;99074.97;225260;1282;22574;-75
2023/05/12 19:47:03;;;;;;;5.50;2.70;;;;;;;13.99;50.38;99078.23;225305;1278;22696;-76
2023/05/12 19:52:06;;;;;;;7.20;2.60;;;;;;;13.86;50.63;99078.40;225383;1276;22555;-75
2023/05/12 19:57:08;;;;;;;4.10;2.80;;;;;;;13.73;50.77;99083.45;225343;1283;22577;-76
2023/05/12 20:02:14;;;;;;;4.00;2.50;;;;;;;13.63;51.09;99083.23;225399;1278;22536;-76
2023/05/12 20:07:16;;;;;;;7.60;4.00;;;;;;;13.54;51.20;99082.54;225368;1280;22863;-75
2023/05/12 20:12:18;;;;;;;6.50;2.80;;;;;;;13.46;51.41;99084.35;225364;1278;22602;-77
2023/05/12 20:17:20;;;;;;;3.70;2.60;;;;;;;13.43;51.71;99084.54;225393;1280;24272;-75
2023/05/12 20:22:22;;;;;;;4.20;2.70;;;;;;;13.39;51.90;99087.86;225368;1278;24225;-76
2023/05/12 20:27:24;;;;;;;5.40;2.90;;;;;;;13.32;51.84;99081.27;225365;1283;22690;-74
2023/05/12 20:32:27;;;;;;;4.70;2.50;;;;;;;13.22;52.09;99080.90;225354;1281;22556;-76
2023/05/12 20:37:29;;;;;;;5.10;2.80;;;;;;;13.14;52.31;99071.02;225349;1281;22542;-75
2023/05/12 20:42:31;;;;;;;5.60;2.90;;;;;;;13.07;52.53;99067.61;225356;1280;22550;-74
2023/05/12 20:47:33;;;;;;;4.30;3.00;;;;;;;12.97;52.50;99070.79;225388;1278;22551;-75
2023/05/12 20:52:38;;;;;;;6.40;3.20;;;;;;;12.93;52.95;99067.13;225390;1280;22556;-74
2023/05/12 20:57:41;;;;;;;3.70;3.00;;;;;;;12.93;52.90;99068.31;225323;1277;24247;-74
2023/05/12 21:02:52;;;;;;;4.20;2.70;;;;;;;12.96;53.04;99071.27;225318;1277;25383;-76
2023/05/12 21:08:07;;;;;;;5.50;2.70;;;;;;;13.00;52.99;99081.23;225364;1283;22549;-75
2023/05/12 21:13:15;;;;;;;4.70;2.90;;;;;;;12.96;52.87;99085.15;225321;1283;22543;-75
2023/05/12 21:18:18;;;;;;;5.50;3.10;;;;;;;12.85;53.29;99100.17;225444;1279;22543;-75
2023/05/12 21:23:20;;;;;;;6.40;3.80;;;;;;;12.73;53.40;99116.66;225382;1281;22550;-75
2023/05/12 21:28:23;;;;;;;4.10;3.40;;;;;;;12.66;53.56;99118.11;225402;1280;22970;-75
2023/05/12 21:33:38;;;;;;;5.70;3.60;;;;;;;12.62;53.63;99121.02;225385;1283;22530;-73
2023/05/12 21:38:43;;;;;;;9.90;4.00;;;;;;;12.57;53.62;99117.86;225439;1283;22646;-75
2023/05/12 21:43:45;;;;;;;7.30;3.50;;;;;;;12.57;53.84;99120.31;225422;1283;22566;-75
2023/05/12 21:48:48;;;;;;;4.90;3.40;;;;;;;12.60;53.64;99128.41;225222;1283;22940;-75
2023/05/12 21:53:53;;;;;;;4.80;3.70;;;;;;;12.57;53.58;99130.78;225420;1279;22546;-75
2023/05/12 21:58:58;;;;;;;8.40;3.70;;;;;;;12.50;53.62;99127.56;225328;1283;22550;-76
2023/05/12 22:04:01;;;;;;;6.40;3.70;;;;;;;12.43;53.76;99125.45;225277;1281;22546;-75
2023/05/12 22:09:08;;;;;;;10.10;3.90;;;;;;;12.40;54.16;99136.83;225325;1281;22550;-75
2023/05/12 22:14:13;;;;;;;8.50;3.50;;;;;;;12.37;54.17;99139.05;225431;1279;22587;-75
2023/05/12 22:19:19;;;;;;;4.90;3.50;;;;;;;12.35;54.27;99141.48;225458;1280;22553;-75
2023/05/12 22:24:21;;;;;;;6.00;3.70;;;;;;;12.32;54.60;99145.12;225380;1278;22549;-75
2023/05/12 22:29:48;;;;;;;6.30;3.40;;;;;;;12.29;54.65;99145.39;225447;1283;22526;-75
2023/05/12 22:35:01;;;;;;;6.40;4.10;;;;;;;12.28;54.81;99146.79;225484;1281;22543;-75
2023/05/12 22:40:07;;;;;;;7.10;3.90;;;;;;;12.26;55.15;99146.29;225311;1280;200459;-74
2023/05/12 22:45:16;;;;;;;9.40;4.30;;;;;;;12.25;55.48;99144.32;225397;1283;24228;-76
2023/05/12 22:50:22;;;;;;;7.10;3.90;;;;;;;12.24;55.53;99141.49;225338;1281;22572;-75
2023/05/12 22:55:29;;;;;;;5.40;4.00;;;;;;;12.21;55.94;99145.37;225365;1278;22565;-76
2023/05/12 23:00:33;;;;;;;5.00;4.40;;;;;;;12.18;56.44;99151.66;225439;1283;22644;-75
2023/05/12 23:05:35;;;;;;;7.10;4.60;;;;;;;12.14;56.61;99150.66;225424;1283;22545;-76
2023/05/12 23:10:42;;;;;;;5.50;4.80;;;;;;;12.10;56.72;99151.67;225348;1283;22530;-76
2023/05/12 23:15:51;;;;;;;6.80;4.50;;;;;;;12.04;56.63;99153.11;225438;1283;22544;-75
2023/05/12 23:20:57;;;;;;;11.20;6.40;;;;;;;11.97;56.73;99158.30;225453;1275;22564;-74
2023/05/12 23:25:59;;;;;;;14.90;7.00;;;;;;;11.90;56.90;99159.08;225349;1281;22646;-76
2023/05/12 23:31:05;;;;;;;13.30;8.00;;;;;;;11.81;56.81;99161.59;225500;1279;22565;-75
2023/05/12 23:36:13;;;;;;;13.30;6.80;;;;;;;11.71;57.16;99161.72;225448;1279;22578;-74
2023/05/12 23:41:24;;;;;;;9.00;6.00;;;;;;;11.62;57.99;99153.95;225452;1283;22539;-75
2023/05/12 23:46:30;;;;;;;8.60;5.70;;;;;;;11.56;58.68;99154.55;225393;1278;22543;-76
2023/05/12 23:51:37;;;;;;;7.40;5.10;;;;;;;11.51;59.36;99152.61;225444;1278;22640;-77